Time;durP1;ratioP1;P1;durP2;ratioP2;P2;SDS_P1;SDS_P2;PMS_P1;PMS_P2;Temp;Humidity;BMP_temperature;BMP_pressure;BME280_temperature;BME280_humidity;BME280_pressure;Samples;Min_cycle;Max_cycle;Signal;HPM_P1;HPM_P2
2022/04/17 00:00:38;;;;;;;18.65;9.83;;;;;;;1.18;75.65;102934.77;1730770;81;21754;-92
2022/04/17 00:03:21;;;;;;;23.10;10.13;;;;;;;1.18;75.63;102932.17;1723497;80;21104;-93
2022/04/17 00:06:03;;;;;;;16.62;9.75;;;;;;;1.18;75.69;102929.19;1741837;82;21017;-93
2022/04/17 00:08:32;;;;;;;20.10;11.40;;;;;;;1.20;75.72;102932.84;1740575;82;21117;-91
2022/04/17 00:11:01;;;;;;;16.80;9.93;;;;;;;1.22;75.79;102930.05;1735908;82;21085;-91
2022/04/17 00:13:29;;;;;;;16.37;10.00;;;;;;;1.25;75.84;102930.72;1735255;81;21141;-90
2022/04/17 00:16:01;;;;;;;17.42;9.58;;;;;;;1.28;75.84;102925.84;1732995;82;21126;-91
2022/04/17 00:18:32;;;;;;;19.67;9.95;;;;;;;1.31;75.86;102924.81;1722844;82;21118;-92
2022/04/17 00:21:01;;;;;;;19.77;9.98;;;;;;;1.35;75.92;102926.94;1731991;81;21047;-91
2022/04/17 00:23:28;;;;;;;22.58;12.28;;;;;;;1.40;75.95;102923.12;1742922;80;20925;-95
2022/04/17 00:26:10;;;;;;;20.00;11.18;;;;;;;1.45;75.88;102919.30;1737945;81;21978;-93
2022/04/17 00:28:36;;;;;;;22.77;11.00;;;;;;;1.47;75.79;102924.25;1695412;82;21119;-94
2022/04/17 00:31:03;;;;;;;23.65;12.50;;;;;;;1.49;75.76;102921.80;1740712;82;21287;-93
2022/04/17 00:33:32;;;;;;;23.85;12.18;;;;;;;1.51;75.73;102920.27;1740406;80;20998;-96
2022/04/17 00:36:07;;;;;;;24.87;10.93;;;;;;;1.53;75.76;102924.83;1718220;82;21074;-96
2022/04/17 00:38:33;;;;;;;23.45;12.18;;;;;;;1.56;75.69;102928.13;1694015;82;22116;-95
2022/04/17 00:41:01;;;;;;;24.00;11.75;;;;;;;1.57;75.63;102925.14;1728710;82;21061;-95
2022/04/17 00:43:31;;;;;;;18.48;10.45;;;;;;;1.59;75.69;102927.09;1732519;81;21074;-94
2022/04/17 00:45:58;;;;;;;19.40;10.45;;;;;;;1.61;75.62;102927.25;1732836;82;21126;-95
2022/04/17 00:48:29;;;;;;;19.77;9.73;;;;;;;1.63;75.61;102917.92;1731198;82;21061;-95
2022/04/17 00:50:56;;;;;;;15.30;9.38;;;;;;;1.62;75.55;102918.32;1713766;81;22404;-96
2022/04/17 00:53:36;;;;;;;18.82;10.45;;;;;;;1.63;75.51;102914.03;1710352;83;21064;-92
2022/04/17 00:56:07;;;;;;;16.85;10.08;;;;;;;1.63;75.46;102917.53;1649339;85;21643;-95
2022/04/17 00:58:37;;;;;;;16.48;10.35;;;;;;;1.62;75.41;102913.12;1689965;84;21058;-95
2022/04/17 01:01:04;;;;;;;18.25;9.95;;;;;;;1.63;75.41;102915.33;1701253;84;21194;-93
2022/04/17 01:03:31;;;;;;;14.93;9.48;;;;;;;1.63;75.39;102911.05;1679977;82;21823;-95
2022/04/17 01:05:58;;;;;;;17.12;9.78;;;;;;;1.63;75.33;102902.35;1727487;82;21106;-93
2022/04/17 01:08:25;;;;;;;22.05;9.80;;;;;;;1.65;75.31;102906.01;1688637;82;22016;-93
2022/04/17 01:10:52;;;;;;;18.50;9.65;;;;;;;1.66;75.38;102903.56;1721020;83;21055;-95
2022/04/17 01:13:22;;;;;;;19.85;9.90;;;;;;;1.68;75.35;102904.62;1720338;81;21090;-95
2022/04/17 01:15:58;;;;;;;15.97;9.43;;;;;;;1.69;75.31;102905.16;1712750;82;21810;-95
2022/04/17 01:18:23;;;;;;;16.40;8.98;;;;;;;1.71;75.31;102891.94;1694238;83;21490;-96
2022/04/17 01:20:50;;;;;;;15.55;9.23;;;;;;;1.71;75.27;102889.34;1683827;82;21061;-95
2022/04/17 01:28:51;;;;;;;16.42;9.33;;;;;;;1.73;75.24;102892.09;1727733;81;21693;-93
2022/04/17 01:31:18;;;;;;;19.92;9.65;;;;;;;1.72;75.17;102892.84;1721283;82;21017;-93
2022/04/17 01:33:48;;;;;;;15.28;9.55;;;;;;;1.68;75.12;102889.05;1732071;82;20984;-93
2022/04/17 01:36:13;;;;;;;16.97;9.95;;;;;;;1.65;75.12;102890.43;1727771;82;21080;-93
2022/04/17 01:38:40;;;;;;;16.75;9.10;;;;;;;1.60;75.08;102888.70;1741779;81;21087;-94
2022/04/17 01:41:07;;;;;;;16.20;9.50;;;;;;;1.56;75.10;102893.08;1714394;82;21792;-92
2022/04/17 01:43:35;;;;;;;15.20;9.10;;;;;;;1.51;75.12;102891.33;1719336;81;21059;-91
2022/04/17 01:46:02;;;;;;;20.17;10.43;;;;;;;1.48;75.11;102891.41;1719519;82;21630;-92
2022/04/17 01:48:29;;;;;;;15.38;8.88;;;;;;;1.44;75.10;102885.02;1707373;82;21062;-94
2022/04/17 01:50:58;;;;;;;17.50;8.93;;;;;;;1.40;75.10;102888.08;1691154;83;21075;-95
2022/04/17 01:53:25;;;;;;;16.12;9.08;;;;;;;1.36;75.13;102893.36;1716230;82;21867;-94
2022/04/17 01:55:55;;;;;;;15.45;8.28;;;;;;;1.31;75.16;102886.84;1726919;82;21150;-94
2022/04/17 01:58:25;;;;;;;15.55;8.60;;;;;;;1.28;75.24;102888.22;1723494;82;21484;-93
2022/04/17 02:00:53;;;;;;;17.50;9.23;;;;;;;1.24;75.28;102890.89;1717319;82;21148;-93
2022/04/17 02:03:21;;;;;;;17.02;8.95;;;;;;;1.22;75.36;102895.02;1716196;81;21618;-95
2022/04/17 02:05:48;;;;;;;13.10;7.83;;;;;;;1.23;75.34;102895.92;1717047;81;22560;-94
2022/04/17 02:08:16;;;;;;;14.60;8.40;;;;;;;1.19;75.35;102882.14;1703313;82;21101;-92
2022/04/17 02:10:43;;;;;;;15.72;8.70;;;;;;;1.18;75.46;102885.09;1669656;83;20981;-91
2022/04/17 02:13:09;;;;;;;13.45;8.15;;;;;;;1.18;75.51;102885.48;1675948;83;21550;-91
2022/04/17 02:15:36;;;;;;;13.70;8.38;;;;;;;1.18;75.51;102882.89;1732159;82;21057;-90
2022/04/17 02:18:05;;;;;;;14.80;8.60;;;;;;;1.18;75.53;102878.60;1732247;82;21703;-91
2022/04/17 02:20:32;;;;;;;13.05;8.15;;;;;;;1.17;75.53;102876.79;1731843;82;21099;-90
2022/04/17 02:23:01;;;;;;;14.95;8.03;;;;;;;1.16;75.55;102872.00;1731731;81;21120;-91
2022/04/17 02:25:28;;;;;;;15.50;8.55;;;;;;;1.15;75.54;102871.45;1732128;81;21106;-91
2022/04/17 02:27:55;;;;;;;16.65;8.98;;;;;;;1.15;75.53;102869.25;1732834;81;21065;-92
2022/04/17 02:30:22;;;;;;;17.45;8.75;;;;;;;1.15;75.56;102860.17;1732586;81;22592;-92
2022/04/17 02:32:53;;;;;;;13.72;8.35;;;;;;;1.15;75.57;102866.26;1731786;81;21116;-92
2022/04/17 02:35:20;;;;;;;15.98;8.40;;;;;;;1.15;75.52;102858.88;1732489;81;21116;-92
2022/04/17 02:37:47;;;;;;;13.15;7.95;;;;;;;1.13;75.52;102852.63;1732628;82;21065;-95
2022/04/17 02:40:14;;;;;;;15.40;8.13;;;;;;;1.12;75.46;102857.27;1732536;82;21598;-93
2022/04/17 02:42:41;;;;;;;12.75;7.60;;;;;;;1.07;75.45;102849.41;1732076;81;21997;-93
2022/04/17 02:45:30;;;;;;;16.77;8.80;;;;;;;1.08;75.48;102847.36;1732219;81;21073;-95
2022/04/17 02:48:01;;;;;;;14.18;8.08;;;;;;;1.05;75.46;102850.59;1725632;81;21104;-94
2022/04/17 02:50:33;;;;;;;14.60;8.23;;;;;;;1.03;75.47;102850.79;1732878;81;21448;-96
2022/04/17 02:53:02;;;;;;;13.72;8.08;;;;;;;1.04;75.51;102849.14;1755369;80;21088;-95
2022/04/17 02:55:29;;;;;;;12.30;7.58;;;;;;;1.03;75.54;102844.70;1727683;81;21733;-96
2022/04/17 02:58:00;;;;;;;15.00;8.08;;;;;;;1.04;75.55;102852.63;1725966;82;21073;-94
2022/04/17 03:05:46;;;;;;;13.88;7.53;;;;;;;1.04;75.47;102837.47;1732973;81;21073;-93
2022/04/17 03:08:16;;;;;;;13.30;8.10;;;;;;;1.02;75.45;102835.11;1728879;81;21748;-92
2022/04/17 03:10:47;;;;;;;15.72;7.80;;;;;;;1.02;75.48;102837.70;1724300;81;22245;-92
2022/04/17 03:13:15;;;;;;;11.05;7.30;;;;;;;1.01;75.46;102838.45;1715732;81;21073;-93
2022/04/17 03:15:44;;;;;;;12.05;7.05;;;;;;;0.99;75.44;102832.20;1684838;83;21102;-94
2022/04/17 03:18:15;;;;;;;14.85;7.42;;;;;;;0.99;75.47;102830.91;1701261;83;21082;-95
2022/04/17 03:20:40;;;;;;;12.58;7.40;;;;;;;1.00;75.44;102835.34;1681022;82;21819;-94
2022/04/17 03:23:10;;;;;;;17.32;7.87;;;;;;;0.99;75.43;102837.39;1676871;81;21059;-96
2022/04/17 03:25:41;;;;;;;12.25;7.35;;;;;;;0.99;75.42;102833.50;1676200;82;20941;-94
2022/04/17 03:28:25;;;;;;;13.93;7.67;;;;;;;0.98;75.42;102831.30;1676847;81;21012;-93
2022/04/17 03:31:31;;;;;;;12.25;7.78;;;;;;;0.99;75.41;102834.41;1689745;80;21105;-93
2022/04/17 03:34:21;;;;;;;14.47;7.17;;;;;;;1.02;75.46;102837.70;1685063;82;21544;-94
2022/04/17 03:36:49;;;;;;;11.28;6.60;;;;;;;1.04;75.43;102831.89;1715478;81;21083;-94
2022/04/17 03:39:16;;;;;;;10.38;6.85;;;;;;;1.08;75.41;102834.00;1694913;82;21039;-94
2022/04/17 03:41:43;;;;;;;15.72;7.30;;;;;;;1.12;75.38;102823.16;1690379;81;21012;-94
2022/04/17 03:44:12;;;;;;;11.48;6.80;;;;;;;1.16;75.36;102825.30;1695801;83;21085;-95
2022/04/17 03:46:38;;;;;;;13.78;7.58;;;;;;;1.22;75.34;102826.28;1695144;82;22274;-93
2022/04/17 03:49:08;;;;;;;11.70;7.22;;;;;;;1.26;75.33;102824.86;1694218;82;21095;-92
2022/04/17 03:51:36;;;;;;;10.93;6.87;;;;;;;1.34;75.36;102821.34;1687206;82;21122;-93
2022/04/17 03:54:02;;;;;;;17.23;7.58;;;;;;;1.42;75.34;102820.77;1689990;83;21192;-92
2022/04/17 03:56:29;;;;;;;12.68;6.97;;;;;;;1.50;75.28;102819.44;1687161;82;21146;-93
2022/04/17 03:58:56;;;;;;;14.63;7.40;;;;;;;1.64;75.27;102820.73;1670527;84;22329;-93
2022/04/17 04:01:26;;;;;;;12.75;8.05;;;;;;;1.81;75.29;102819.72;1690514;82;21175;-93
2022/04/17 04:03:51;;;;;;;13.78;7.53;;;;;;;2.05;75.25;102817.59;1689912;83;21102;-93
2022/04/17 04:06:21;;;;;;;14.35;7.22;;;;;;;2.24;74.96;102813.70;1671810;82;21115;-93
2022/04/17 04:08:53;;;;;;;13.55;7.22;;;;;;;2.40;74.74;102822.50;1679937;82;21137;-93
2022/04/17 04:11:19;;;;;;;13.38;7.05;;;;;;;2.54;74.52;102822.08;1683992;82;21814;-92
2022/04/17 04:13:46;;;;;;;11.25;7.28;;;;;;;2.68;74.38;102809.01;1688336;82;21150;-92
2022/04/17 04:16:15;;;;;;;12.47;6.45;;;;;;;2.86;74.22;102814.96;1689004;82;21504;-89
2022/04/17 04:18:42;;;;;;;15.68;7.72;;;;;;;3.03;74.08;102813.46;1681668;82;21169;-90
2022/04/17 04:21:30;;;;;;;11.73;6.75;;;;;;;3.20;73.88;102811.04;1680771;83;21150;-87
2022/04/17 04:23:58;;;;;;;10.10;6.42;;;;;;;3.37;73.52;102812.91;1677514;82;21599;-89
2022/04/17 04:26:31;;;;;;;11.08;6.10;;;;;;;3.50;73.22;102813.20;1662441;83;21312;-89
2022/04/17 04:29:07;;;;;;;14.58;6.87;;;;;;;3.65;73.12;102813.61;1667846;82;21248;-90
2022/04/17 04:31:34;;;;;;;11.48;6.58;;;;;;;3.79;72.79;102819.63;1684671;82;21106;-89
2022/04/17 04:34:16;;;;;;;9.45;6.35;;;;;;;3.91;72.57;102816.25;1678221;82;21137;-88
2022/04/17 04:37:01;;;;;;;11.93;6.97;;;;;;;4.00;72.30;102820.54;1693061;82;21090;-88
2022/04/17 04:39:34;;;;;;;10.15;6.62;;;;;;;3.84;71.77;102787.44;1627099;85;21169;-89
2022/04/17 04:42:03;;;;;;;11.10;7.22;;;;;;;3.93;71.60;102816.89;1688568;82;21038;-89
2022/04/17 04:44:47;;;;;;;12.58;6.97;;;;;;;3.87;71.39;102817.28;1677328;83;21574;-89
2022/04/17 04:47:03;;;;;;;13.30;7.28;;;;;;;3.78;71.22;102819.49;1633057;85;21186;-91
2022/04/17 04:49:45;;;;;;;;;;;;;;;;;;;;;
2022/04/17 04:52:23;;;;;;;10.15;6.75;;;;;;;3.62;71.19;102822.09;1686762;83;21421;-90
2022/04/17 04:54:50;;;;;;;10.90;7.10;;;;;;;3.61;71.33;102826.76;1686688;83;21122;-94
2022/04/17 04:57:17;;;;;;;11.03;6.83;;;;;;;3.60;71.25;102824.92;1687670;84;21179;-87
2022/04/17 04:59:44;;;;;;;9.70;7.10;;;;;;;3.67;71.40;102823.77;1689907;81;21033;-87
2022/04/17 05:02:11;;;;;;;14.00;6.50;;;;;;;3.76;71.43;102824.97;1695361;81;21794;-88
2022/04/17 05:04:44;;;;;;;10.82;6.03;;;;;;;3.86;71.40;102823.66;1722740;80;21015;-87
2022/04/17 05:07:11;;;;;;;8.75;6.10;;;;;;;4.02;71.40;102817.67;1723707;81;21061;-87
2022/04/17 05:09:41;;;;;;;11.22;6.47;;;;;;;4.22;71.23;102817.13;1709524;81;21080;-86
2022/04/17 05:12:12;;;;;;;8.80;5.58;;;;;;;4.38;71.01;102812.41;1711973;82;21089;-86
2022/04/17 05:14:41;;;;;;;10.85;6.00;;;;;;;4.51;70.57;102811.73;1731930;80;21040;-87
2022/04/17 05:17:08;;;;;;;9.63;6.00;;;;;;;4.64;70.35;102811.95;1700479;82;21058;-86
2022/04/17 05:19:38;;;;;;;10.70;6.83;;;;;;;4.80;70.29;102804.97;1722908;82;20974;-86
2022/04/17 05:22:10;;;;;;;10.30;6.97;;;;;;;5.04;70.07;102809.97;1716989;82;21109;-85
2022/04/17 05:24:36;;;;;;;10.82;6.30;;;;;;;5.31;69.92;102804.22;1703638;83;21170;-85
2022/04/17 05:29:52;;;;;;;8.45;6.05;;;;;;;6.22;69.71;102798.70;1692037;82;21577;-87
2022/04/17 05:32:21;;;;;;;8.43;5.72;;;;;;;6.74;68.97;102789.91;1692211;82;21544;-84
2022/04/17 05:34:54;;;;;;;7.53;5.45;;;;;;;7.12;68.55;102794.39;1704903;83;21131;-93
2022/04/17 05:37:24;;;;;;;9.13;4.78;;;;;;;7.49;67.66;102791.77;1705905;83;21452;-95
2022/04/17 05:39:58;;;;;;;5.92;4.35;;;;;;;7.58;66.79;102788.48;1704315;82;21772;-89
2022/04/17 05:42:25;;;;;;;5.60;4.03;;;;;;;7.70;66.72;102787.11;1706864;82;21559;-91
2022/04/17 05:44:56;;;;;;;6.08;4.30;;;;;;;7.79;65.98;102794.30;1701787;82;21094;-86
2022/04/17 05:47:34;;;;;;;4.72;3.40;;;;;;;7.82;65.98;102789.66;1709078;82;21102;-95
2022/04/17 05:49:55;;;;;;;6.50;3.87;;;;;;;7.89;65.74;102793.63;1702598;83;21045;-96
2022/04/17 05:52:31;;;;;;;5.42;3.35;;;;;;;7.90;65.49;102791.12;1722216;81;21840;-96
2022/04/17 05:54:51;;;;;;;4.65;3.22;;;;;;;7.87;65.40;102781.72;1704242;82;21081;-96
2022/04/17 05:57:21;;;;;;;8.23;3.17;;;;;;;7.88;64.85;102791.80;1677115;83;21113;-96
2022/04/17 05:59:51;;;;;;;4.25;2.47;;;;;;;7.56;64.48;102765.20;1730868;81;21536;-95
2022/04/17 06:02:27;;;;;;;5.95;3.30;;;;;;;7.50;64.24;102790.05;1709548;82;21099;-95
2022/04/17 06:04:57;;;;;;;4.65;3.20;;;;;;;7.23;63.91;102785.09;1699972;83;21552;-96
2022/04/17 06:07:27;;;;;;;5.80;3.33;;;;;;;6.97;64.09;102786.74;1699810;83;21123;-89
2022/04/17 06:09:54;;;;;;;4.05;2.90;;;;;;;6.87;64.19;102789.10;1706080;83;21091;-96
2022/04/17 06:12:23;;;;;;;5.03;2.58;;;;;;;6.81;64.35;102789.94;1696922;83;21157;-96
2022/04/17 06:14:53;;;;;;;4.00;2.55;;;;;;;6.76;64.14;102791.34;1666779;83;21163;-91
2022/04/17 06:17:24;;;;;;;5.33;2.55;;;;;;;6.67;64.16;102791.97;1685574;82;21089;-89
2022/04/17 06:19:52;;;;;;;3.55;2.40;;;;;;;6.70;64.24;102792.17;1689384;82;21082;-86
2022/04/17 06:22:20;;;;;;;4.37;2.22;;;;;;;6.69;63.95;102789.06;1694650;81;21152;-84
2022/04/17 06:24:47;;;;;;;4.25;2.25;;;;;;;6.68;63.54;102787.22;1680341;81;21139;-84
2022/04/17 06:27:13;;;;;;;2.60;2.00;;;;;;;6.67;63.38;102774.95;1678874;81;21128;-84
2022/04/17 06:29:40;;;;;;;4.50;2.33;;;;;;;6.71;62.97;102776.99;1680014;81;21932;-84
2022/04/17 06:32:12;;;;;;;3.77;2.25;;;;;;;6.76;63.14;102776.94;1692046;82;21177;-84
2022/04/17 06:34:38;;;;;;;4.53;2.52;;;;;;;6.80;62.93;102765.89;1689834;82;21427;-84
2022/04/17 06:37:07;;;;;;;4.55;2.30;;;;;;;6.66;62.40;102745.64;1692131;82;21567;-92
2022/04/17 06:39:34;;;;;;;2.65;1.80;;;;;;;6.79;62.64;102770.59;1700200;82;21432;-90
2022/04/17 06:42:03;;;;;;;4.15;1.50;;;;;;;6.89;62.82;102763.00;1676618;81;21747;-91
2022/04/17 06:44:30;;;;;;;3.75;1.67;;;;;;;7.08;61.99;102771.81;1680957;83;21276;-86
2022/04/17 06:47:13;;;;;;;3.45;2.00;;;;;;;7.16;61.78;102766.30;1688453;83;21095;-94
2022/04/17 06:49:46;;;;;;;2.85;1.62;;;;;;;7.29;61.30;102768.09;1692827;81;21073;-89
2022/04/17 06:52:15;;;;;;;2.55;2.00;;;;;;;7.43;61.04;102772.08;1677055;82;21649;-89
2022/04/17 06:54:44;;;;;;;4.30;1.67;;;;;;;7.55;60.58;102774.26;1693902;83;21938;-89
2022/04/17 06:57:11;;;;;;;3.55;2.40;;;;;;;7.63;60.53;102777.00;1692334;82;21079;-89
2022/04/17 06:59:40;;;;;;;5.08;2.20;;;;;;;7.78;60.33;102774.53;1691115;81;21103;-88
2022/04/17 07:02:07;;;;;;;3.85;2.58;;;;;;;7.93;60.20;102776.88;1691482;82;21124;-88
2022/04/17 07:04:33;;;;;;;4.53;2.65;;;;;;;8.09;60.12;102778.86;1680809;81;20907;-88
2022/04/17 07:07:02;;;;;;;3.25;1.90;;;;;;;8.16;59.75;102786.34;1693320;81;21741;-85
2022/04/17 07:09:29;;;;;;;3.55;2.30;;;;;;;8.12;59.13;102782.07;1691594;83;21069;-83
2022/04/17 07:11:57;;;;;;;4.90;2.22;;;;;;;8.02;58.49;102787.10;1699210;82;21089;-83
2022/04/17 07:14:24;;;;;;;3.30;2.12;;;;;;;8.02;58.47;102791.45;1697524;82;21101;-88
2022/04/17 07:16:51;;;;;;;3.45;1.87;;;;;;;8.08;58.32;102788.83;1697443;82;21175;-89
2022/04/17 07:19:18;;;;;;;3.05;1.52;;;;;;;8.07;57.86;102787.40;1700135;81;22584;-89
2022/04/17 07:21:48;;;;;;;2.10;1.35;;;;;;;7.89;57.50;102778.80;1698473;82;20997;-86
2022/04/17 07:24:15;;;;;;;2.27;1.47;;;;;;;7.94;57.35;102794.86;1696411;82;21089;-85
2022/04/17 07:26:41;;;;;;;3.10;1.60;;;;;;;8.01;57.48;102792.23;1694996;82;21085;-85
2022/04/17 07:29:08;;;;;;;2.85;1.70;;;;;;;7.98;56.75;102790.33;1700767;84;21172;-86
2022/04/17 07:31:35;;;;;;;3.58;2.10;;;;;;;7.97;56.79;102788.49;1683044;82;21723;-87
2022/04/17 07:34:03;;;;;;;4.22;2.12;;;;;;;7.97;56.83;102792.42;1691813;82;21092;-86
2022/04/17 07:36:30;;;;;;;2.00;1.65;;;;;;;7.92;56.62;102785.58;1692474;82;21100;-90
2022/04/17 07:38:58;;;;;;;3.58;2.08;;;;;;;7.90;56.45;102792.80;1674891;84;21100;-90
2022/04/17 07:41:26;;;;;;;2.60;1.80;;;;;;;7.82;56.15;102794.91;1689936;82;21132;-90
2022/04/17 07:43:53;;;;;;;8.13;4.72;;;;;;;7.71;55.80;102786.70;1686722;82;21782;-90
2022/04/17 07:46:20;;;;;;;6.35;2.87;;;;;;;7.65;56.03;102783.25;1688278;82;21521;-90
2022/04/17 07:48:47;;;;;;;7.53;3.27;;;;;;;7.66;55.98;102787.70;1684165;82;21096;-91
2022/04/17 07:51:13;;;;;;;8.08;3.22;;;;;;;7.60;55.73;102784.63;1680273;82;21093;-91
2022/04/17 07:53:40;;;;;;;5.80;2.85;;;;;;;7.54;55.81;102786.42;1675786;82;21056;-89
2022/04/17 07:56:09;;;;;;;4.03;2.47;;;;;;;7.55;55.98;102780.40;1689123;82;21759;-90
2022/04/17 07:59:15;;;;;;;;;;;;;;;;;;;;;
2022/04/17 08:04:57;;;;;;;6.73;3.33;;;;;;;7.47;55.14;102781.59;1656390;82;21180;-89
2022/04/17 08:07:24;;;;;;;2.80;2.33;;;;;;;7.43;55.19;102779.94;1683268;82;21689;-89
2022/04/17 08:09:52;;;;;;;6.65;2.55;;;;;;;7.39;54.86;102773.19;1676415;82;22245;-90
2022/04/17 08:12:26;;;;;;;4.78;2.45;;;;;;;7.38;54.68;102770.05;1664820;84;21128;-92
2022/04/17 08:15:03;;;;;;;6.00;2.60;;;;;;;7.38;54.68;102770.45;1646614;84;21093;-91
2022/04/17 08:17:30;;;;;;;5.83;2.37;;;;;;;7.38;54.71;102777.91;1660897;84;21078;-91
2022/04/17 08:19:56;;;;;;;2.17;1.70;;;;;;;7.39;54.64;102769.27;1664318;84;21243;-91
2022/04/17 08:22:23;;;;;;;5.10;2.37;;;;;;;7.45;54.42;102769.16;1660681;84;22326;-91
2022/04/17 08:24:50;;;;;;;5.58;2.22;;;;;;;7.47;54.40;102772.41;1665830;84;21085;-90
2022/04/17 08:27:17;;;;;;;5.53;2.70;;;;;;;7.47;54.43;102772.41;1670965;84;21100;-90
2022/04/17 08:29:44;;;;;;;4.25;2.22;;;;;;;7.53;54.60;102768.00;1665230;84;21178;-91
2022/04/17 08:32:10;;;;;;;4.12;2.20;;;;;;;7.57;54.72;102770.03;1661059;84;21085;-92
2022/04/17 08:34:39;;;;;;;5.22;2.10;;;;;;;7.59;54.60;102768.42;1667624;84;21747;-90
2022/04/17 08:37:09;;;;;;;2.40;1.80;;;;;;;7.58;54.38;102773.14;1642357;85;21118;-90
2022/04/17 08:39:37;;;;;;;4.80;2.00;;;;;;;7.61;54.11;102765.50;1661000;84;21696;-91
2022/04/17 08:42:06;;;;;;;3.52;1.87;;;;;;;7.64;53.94;102767.41;1663401;84;21154;-91
2022/04/17 08:44:39;;;;;;;2.40;1.47;;;;;;;7.68;54.07;102758.58;1637629;85;21105;-92
2022/04/17 08:47:07;;;;;;;3.02;1.70;;;;;;;7.72;53.86;102760.59;1659157;85;21807;-90
2022/04/17 08:49:36;;;;;;;3.10;1.52;;;;;;;7.77;53.84;102757.91;1692738;83;21508;-90
2022/04/17 08:52:08;;;;;;;6.85;1.65;;;;;;;7.83;53.71;102749.92;1689334;82;21190;-91
2022/04/17 08:54:34;;;;;;;5.47;1.65;;;;;;;7.84;53.32;102750.45;1661627;84;21081;-90
2022/04/17 08:57:04;;;;;;;3.50;2.37;;;;;;;7.83;53.18;102744.30;1662488;84;21030;-91
2022/04/17 09:00:07;;;;;;;;;;;;;;;;;;;;;
2022/04/17 09:02:16;;;;;;;4.03;1.40;;;;;;;7.85;52.65;102750.56;1645414;84;22173;-91
2022/04/17 09:04:46;;;;;;;2.37;1.42;;;;;;;7.91;52.50;102747.03;1657975;84;21651;-93
2022/04/17 09:07:23;;;;;;;3.62;1.42;;;;;;;7.96;52.18;102747.36;1643510;84;21089;-91
2022/04/17 09:09:53;;;;;;;2.05;1.20;;;;;;;7.93;52.06;102745.83;1654483;82;21136;-91
2022/04/17 09:12:25;;;;;;;2.30;1.32;;;;;;;7.94;52.22;102742.01;1677824;84;21761;-90
2022/04/17 09:14:56;;;;;;;3.10;1.37;;;;;;;7.96;52.05;102739.08;1678434;84;21031;-91
2022/04/17 09:17:32;;;;;;;2.52;1.77;;;;;;;8.01;51.58;102742.00;1666633;83;21134;-90
2022/04/17 09:19:59;;;;;;;1.52;1.10;;;;;;;8.01;51.44;102743.72;1684465;83;21117;-90
2022/04/17 09:22:50;;;;;;;2.95;1.37;;;;;;;8.03;51.02;102740.38;1680845;83;21117;-91
2022/04/17 09:25:18;;;;;;;2.30;1.60;;;;;;;8.07;51.46;102734.56;1653566;85;21794;-89
2022/04/17 09:28:05;;;;;;;2.05;1.20;;;;;;;8.09;50.75;102726.77;1684201;83;21128;-87
2022/04/17 09:30:39;;;;;;;1.95;1.15;;;;;;;8.13;50.63;102730.13;1680986;82;21719;-88
2022/04/17 09:33:17;;;;;;;1.22;0.90;;;;;;;8.19;50.50;102725.28;1689967;82;21156;-88
2022/04/17 09:35:43;;;;;;;1.50;1.00;;;;;;;8.15;50.14;102719.34;1692627;82;21280;-88
2022/04/17 09:38:09;;;;;;;2.95;1.10;;;;;;;8.14;50.20;102713.56;1684618;84;21926;-84
2022/04/17 09:40:37;;;;;;;1.82;1.00;;;;;;;8.17;49.60;102716.00;1679178;83;21637;-87
2022/04/17 09:43:17;;;;;;;1.55;0.90;;;;;;;8.24;49.40;102709.45;1684579;82;21087;-88
2022/04/17 09:46:10;;;;;;;1.65;1.12;;;;;;;8.25;49.14;102709.04;1681627;83;21123;-87
2022/04/17 09:48:40;;;;;;;2.25;1.30;;;;;;;8.24;48.88;102706.83;1709046;81;21088;-87
2022/04/17 09:51:23;;;;;;;4.35;1.90;;;;;;;8.27;48.43;102705.70;1682555;82;21782;-88
2022/04/17 09:54:04;;;;;;;3.40;1.43;;;;;;;8.31;48.29;102699.84;1687329;82;21186;-87
2022/04/17 09:56:40;;;;;;;1.72;1.20;;;;;;;8.34;48.32;102692.59;1693039;84;21155;-88
2022/04/17 09:59:21;;;;;;;0.80;0.80;;;;;;;8.37;47.93;102696.33;1677425;83;21487;-85
2022/04/17 10:01:56;;;;;;;1.22;0.95;;;;;;;8.38;47.27;102681.06;1671976;84;21151;-84
2022/04/17 10:04:25;;;;;;;2.72;1.02;;;;;;;8.43;47.00;102681.80;1669756;84;27462;-84
2022/04/17 10:07:04;;;;;;;3.25;1.10;;;;;;;8.43;46.75;102685.36;1667307;84;21777;-83
2022/04/17 10:09:28;;;;;;;1.17;1.07;;;;;;;8.45;46.30;102671.02;1681160;82;21093;-84
2022/04/17 10:11:59;;;;;;;1.87;1.00;;;;;;;8.46;46.24;102665.84;1678184;84;21235;-83
2022/04/17 10:14:23;;;;;;;1.87;1.00;;;;;;;8.44;46.39;102659.59;1679505;82;21183;-84
2022/04/17 10:16:50;;;;;;;1.45;1.02;;;;;;;8.50;46.31;102657.77;1669080;82;21768;-84
2022/04/17 10:19:24;;;;;;;1.50;1.07;;;;;;;8.59;46.10;102657.45;1671876;82;21102;-85
2022/04/17 10:21:46;;;;;;;3.30;1.75;;;;;;;8.67;45.43;102661.09;1670631;82;21114;-83
2022/04/17 10:24:24;;;;;;;1.75;1.15;;;;;;;8.67;45.43;102654.91;1686852;81;21138;-83
2022/04/17 10:26:52;;;;;;;2.35;1.62;;;;;;;8.66;45.37;102642.19;1669270;82;21126;-84
2022/04/17 10:29:26;;;;;;;2.92;1.95;;;;;;;8.67;44.80;102642.71;1673774;82;22561;-84
2022/04/17 10:32:25;;;;;;;;;;;;;;;8.68;44.81;102645.82;1676099;84;21096;-84
2022/04/17 10:35:34;;;;;;;1.77;1.07;;;;;;;8.71;44.56;102643.81;1624405;82;20516;-83
2022/04/17 10:38:24;;;;;;;2.58;1.12;;;;;;;8.71;44.58;102642.09;1668471;83;21575;-83
2022/04/17 10:40:59;;;;;;;3.58;2.02;;;;;;;8.74;43.92;102637.42;1695345;83;21082;-83
2022/04/17 10:43:34;;;;;;;1.60;1.30;;;;;;;8.77;43.76;102628.44;1707480;82;22513;-84
2022/04/17 10:46:13;;;;;;;2.15;1.30;;;;;;;8.77;43.26;102632.79;1708437;83;21069;-83
2022/04/17 10:48:57;;;;;;;3.85;1.22;;;;;;;8.74;43.48;102625.61;1692039;83;21058;-83
2022/04/17 10:51:35;;;;;;;;;;;;;;;8.78;43.41;102614.47;1712550;83;21560;-84
2022/04/17 10:54:07;;;;;;;2.37;1.25;;;;;;;8.82;43.29;102612.56;1709726;83;20232;-84
2022/04/17 10:56:40;;;;;;;1.65;1.37;;;;;;;8.83;43.16;102615.67;1709815;82;22585;-83
2022/04/17 10:59:23;;;;;;;2.98;1.62;;;;;;;8.81;43.01;102606.80;1691135;81;21118;-83
2022/04/17 11:01:53;;;;;;;2.67;1.20;;;;;;;8.81;43.12;102598.03;1695540;81;21170;-84
2022/04/17 11:04:29;;;;;;;2.42;1.10;;;;;;;8.87;43.16;102597.08;1730866;81;21075;-84
2022/04/17 11:07:10;;;;;;;4.12;3.60;;;;;;;8.93;43.29;102586.94;1717705;81;21633;-84
2022/04/17 11:09:41;;;;;;;2.33;2.12;;;;;;;9.00;43.16;102591.77;1743486;81;21737;-82
2022/04/17 11:12:13;;;;;;;2.85;2.12;;;;;;;9.03;42.97;102583.15;1743179;81;21085;-83
2022/04/17 11:14:40;;;;;;;2.75;1.52;;;;;;;9.03;42.66;102580.52;1708524;81;21071;-83
2022/04/17 11:17:12;;;;;;;4.55;1.70;;;;;;;9.06;43.13;102577.67;1725265;82;21057;-83
2022/04/17 11:19:39;;;;;;;2.15;1.67;;;;;;;9.12;42.64;102572.81;1729891;82;21179;-82
2022/04/17 11:22:08;;;;;;;3.27;2.55;;;;;;;9.16;43.08;102573.91;1734395;81;21869;-83
2022/04/17 11:25:02;;;;;;;3.67;2.50;;;;;;;9.22;43.19;102561.55;1724303;82;21068;-83
2022/04/17 11:27:50;;;;;;;3.67;1.52;;;;;;;9.28;42.17;102569.37;1738787;81;21063;-83
2022/04/17 11:30:25;;;;;;;1.52;1.42;;;;;;;9.28;42.16;102565.84;1722604;82;21095;-82
2022/04/17 11:32:55;;;;;;;4.17;1.90;;;;;;;9.27;42.12;102563.63;1737894;82;21570;-83
2022/04/17 11:35:26;;;;;;;4.95;2.25;;;;;;;9.23;42.33;102561.61;1719285;83;21774;-84
2022/04/17 11:38:03;;;;;;;4.25;2.30;;;;;;;9.23;42.24;102558.09;1723733;82;21525;-82
2022/04/17 11:40:32;;;;;;;2.92;2.17;;;;;;;9.29;41.78;102559.75;1734308;81;21072;-82
2022/04/17 11:43:14;;;;;;;2.72;1.75;;;;;;;9.30;41.82;102567.73;1735143;81;22300;-83
2022/04/17 11:45:44;;;;;;;5.60;2.50;;;;;;;9.29;42.05;102558.44;1735238;81;21128;-82
2022/04/17 11:48:14;;;;;;;2.80;1.80;;;;;;;9.37;41.41;102565.08;1734710;81;22603;-83
2022/04/17 11:50:41;;;;;;;3.83;2.08;;;;;;;9.41;41.82;102563.13;1734654;81;21132;-83
2022/04/17 11:53:13;;;;;;;4.53;2.02;;;;;;;9.38;41.79;102565.55;1734264;80;21105;-82
2022/04/17 11:55:44;;;;;;;3.30;2.08;;;;;;;9.41;42.15;102554.34;1736510;82;20978;-82
2022/04/17 11:58:24;;;;;;;5.00;1.90;;;;;;;9.51;42.05;102559.30;1733695;81;21112;-82
2022/04/17 12:01:10;;;;;;;2.45;1.70;;;;;;;9.55;41.35;102557.34;1709557;82;21769;-83
2022/04/17 12:03:37;;;;;;;4.75;1.80;;;;;;;9.53;39.97;102559.91;1723587;80;21002;-84
2022/04/17 12:06:06;;;;;;;4.45;1.95;;;;;;;9.49;41.41;102549.11;1722652;81;21158;-83
2022/04/17 12:08:35;;;;;;;7.37;2.12;;;;;;;9.53;42.01;102537.95;1678699;82;21678;-83